Terminal Aerodrome Forecast
Issued by NWS

Home | Current Version | Previous Version | Text Only | Print | Product List | Glossary On
Versions: 1 2 3 4 5 6 7 8 9 10 11 12 13 14 15 16 17 18 19
000
FTUS43 KLSX 261202 AAA
TAFUIN
TAF AMD
KUIN 261202Z 2612/2712 15006KT P6SM BKN250
      TEMPO 2612/2613 5SM BR
     FM261500 20007KT P6SM SCT060 BKN250
     FM270000 16005KT P6SM VCTS SCT060CB OVC110
     FM270200 VRB05KT 6SM -RA VCTS OVC035CB
     FM270700 VRB04KT 3SM -RA BR VCTS OVC015CB=

USA.gov is the U.S. government's official web portal to all federal, state and local government web resources and services.